Time;durP1;ratioP1;P1;durP2;ratioP2;P2;SDS_P1;SDS_P2;PMS_P1;PMS_P2;Temp;Humidity;BMP_temperature;BMP_pressure;BME280_temperature;BME280_humidity;BME280_pressure;Samples;Min_cycle;Max_cycle;Signal;HPM_P1;HPM_P2
2023/03/16 00:01:39;;;;;;;0.10;0.10;;;;;;;12.12;77.26;99289.28;7347993;19;21263;-61
2023/03/16 00:04:05;;;;;;;0.10;0.10;;;;;;;12.01;77.62;99274.09;7354362;19;20829;-62
2023/03/16 00:06:30;;;;;;;0.10;0.10;;;;;;;12.11;77.41;99293.63;7351293;19;20414;-61
2023/03/16 00:08:57;;;;;;;0.10;0.10;;;;;;;12.09;77.45;99279.78;7354812;19;20010;-62
2023/03/16 00:11:27;;;;;;;0.10;0.10;;;;;;;11.86;77.32;99230.41;7357782;19;20019;-62
2023/03/16 00:13:53;;;;;;;0.10;0.10;;;;;;;12.14;77.55;99283.03;7353735;19;20054;-61
2023/03/16 00:16:19;;;;;;;0.10;0.10;;;;;;;12.16;77.71;99282.94;7354061;19;20011;-62
2023/03/16 00:18:44;;;;;;;0.05;0.05;;;;;;;12.14;77.32;99272.56;7355362;19;20026;-62
2023/03/16 00:21:12;;;;;;;0.08;0.08;;;;;;;12.17;77.65;99272.41;7357269;19;20014;-62
2023/03/16 00:23:38;;;;;;;0.00;0.00;;;;;;;12.14;77.52;99266.47;7354454;19;20026;-62
2023/03/16 00:26:07;;;;;;;0.10;0.10;;;;;;;12.16;77.39;99262.84;7355726;19;20015;-62
2023/03/16 00:28:34;;;;;;;0.10;0.10;;;;;;;12.14;77.32;99262.09;7351554;19;20014;-62
2023/03/16 00:31:04;;;;;;;0.00;0.00;;;;;;;12.17;77.19;99272.41;7354937;19;20014;-61
2023/03/16 00:33:33;;;;;;;0.10;0.10;;;;;;;12.16;77.10;99268.06;7356863;19;20054;-60
2023/03/16 00:36:02;;;;;;;0.10;0.10;;;;;;;12.11;77.25;99261.38;7355356;19;20043;-61
2023/03/16 00:38:35;;;;;;;0.10;0.10;;;;;;;12.18;77.18;99263.63;7357730;19;20066;-61
2023/03/16 00:41:03;;;;;;;0.08;0.08;;;;;;;12.18;77.51;99250.53;7355660;19;20013;-62
2023/03/16 00:43:39;;;;;;;0.08;0.08;;;;;;;12.17;77.49;99246.25;7353974;19;20018;-61
2023/03/16 00:46:06;;;;;;;0.00;0.00;;;;;;;12.16;77.31;99244.53;7354406;19;21032;-62
2023/03/16 00:48:36;;;;;;;0.00;0.00;;;;;;;12.19;77.46;99254.84;7355717;19;20058;-61
2023/03/16 00:51:05;;;;;;;0.10;0.10;;;;;;;12.18;76.95;99253.16;7358382;19;22612;-61
2023/03/16 00:53:32;;;;;;;0.00;0.00;;;;;;;12.18;77.35;99247.09;7356386;19;20086;-62
2023/03/16 00:55:57;;;;;;;0.10;0.10;;;;;;;12.05;77.29;99246.84;7356227;19;20020;-61
2023/03/16 00:58:23;;;;;;;0.10;0.10;;;;;;;12.17;77.61;99242.78;7355517;19;20874;-62
2023/03/16 01:00:50;;;;;;;0.10;0.10;;;;;;;12.16;77.31;99241.91;7357396;19;20353;-60
2023/03/16 01:03:15;;;;;;;0.03;0.03;;;;;;;12.18;77.02;99242.69;7352405;19;20074;-62
2023/03/16 01:05:41;;;;;;;0.10;0.10;;;;;;;12.17;77.43;99235.78;7354768;19;20077;-61
2023/03/16 01:08:07;;;;;;;0.10;0.10;;;;;;;12.17;77.60;99225.31;7354154;19;20467;-61
2023/03/16 01:10:36;;;;;;;0.10;0.10;;;;;;;12.20;77.32;99225.13;7354235;19;20030;-61
2023/03/16 01:13:02;;;;;;;0.00;0.00;;;;;;;12.18;77.41;99210.44;7354879;19;20051;-61
2023/03/16 01:15:29;;;;;;;0.10;0.10;;;;;;;12.20;77.42;99206.81;7354252;19;20019;-62
2023/03/16 01:17:55;;;;;;;0.00;0.00;;;;;;;12.05;77.42;99189.28;7356151;19;20007;-61
2023/03/16 01:20:20;;;;;;;0.00;0.00;;;;;;;12.22;77.17;99211.13;7355954;19;20010;-62
2023/03/16 01:22:46;;;;;;;0.10;0.10;;;;;;;12.21;77.30;99194.56;7353430;19;20031;-62
2023/03/16 01:25:12;;;;;;;0.10;0.10;;;;;;;12.20;77.45;99193.72;7353923;19;20018;-61
2023/03/16 01:27:37;;;;;;;0.00;0.00;;;;;;;12.22;77.45;99198.03;7357115;19;20031;-61
2023/03/16 01:30:04;;;;;;;0.10;0.10;;;;;;;11.93;77.76;99150.72;7356919;19;20021;-61
2023/03/16 01:32:30;;;;;;;0.03;0.03;;;;;;;12.22;77.10;99203.28;7352148;19;20007;-61
2023/03/16 01:34:55;;;;;;;0.10;0.10;;;;;;;12.13;77.49;99183.66;7355102;19;20039;-61
2023/03/16 01:37:21;;;;;;;0.00;0.00;;;;;;;12.23;77.25;99197.13;7354143;19;20010;-61
2023/03/16 01:39:48;;;;;;;0.00;0.00;;;;;;;12.23;77.31;99187.50;7356827;19;20042;-61
2023/03/16 01:42:13;;;;;;;0.00;0.00;;;;;;;12.24;77.59;99185.72;7354406;19;20044;-61
2023/03/16 01:45:00;;;;;;;0.00;0.00;;;;;;;12.27;76.88;99188.19;7351494;19;20383;-61
2023/03/16 01:47:26;;;;;;;0.00;0.00;;;;;;;12.23;77.27;99186.66;7250051;19;2004391;-62
2023/03/16 01:49:54;;;;;;;0.00;0.00;;;;;;;12.24;77.48;99178.69;7354453;19;21350;-62
2023/03/16 01:52:23;;;;;;;0.10;0.10;;;;;;;12.26;77.29;99178.63;7352765;19;20614;-61
2023/03/16 01:54:55;;;;;;;0.00;0.00;;;;;;;12.26;77.64;99170.75;7354244;19;20014;-61
2023/03/16 01:57:34;;;;;;;0.10;0.10;;;;;;;12.27;77.03;99162.00;7353385;19;21059;-62
2023/03/16 02:00:17;;;;;;;0.10;0.10;;;;;;;12.26;77.26;99165.53;7352863;19;20468;-62
2023/03/16 02:02:50;;;;;;;0.10;0.10;;;;;;;12.25;77.57;99163.84;7350107;19;20029;-62
2023/03/16 02:05:21;;;;;;;0.00;0.00;;;;;;;12.26;77.39;99166.38;7356471;19;20451;-62
2023/03/16 02:07:49;;;;;;;0.00;0.00;;;;;;;12.24;77.90;99157.75;7353076;19;20007;-62
2023/03/16 02:10:18;;;;;;;0.00;0.00;;;;;;;12.26;77.83;99155.91;7347194;19;20598;-61
2023/03/16 02:12:44;;;;;;;0.10;0.10;;;;;;;12.16;77.30;99136.38;7355849;19;20034;-62
2023/03/16 02:15:12;;;;;;;0.00;0.00;;;;;;;12.26;77.65;99145.44;7352633;19;20043;-62
2023/03/16 02:17:40;;;;;;;0.10;0.10;;;;;;;12.26;77.94;99150.66;7355118;19;20010;-62
2023/03/16 02:20:33;;;;;;;0.00;0.00;;;;;;;12.30;77.65;99146.13;7350623;19;20752;-62
2023/03/16 02:23:00;;;;;;;0.10;0.10;;;;;;;11.95;77.64;99107.00;7250992;19;2004355;-62
2023/03/16 02:25:35;;;;;;;0.00;0.00;;;;;;;12.30;77.82;99140.88;7352504;19;20011;-62
2023/03/16 02:28:21;;;;;;;0.00;0.00;;;;;;;12.31;77.41;99147.81;7352335;19;20105;-62
2023/03/16 02:30:47;;;;;;;0.10;0.10;;;;;;;12.26;77.82;99132.34;7353783;19;20691;-62
2023/03/16 02:33:14;;;;;;;0.03;0.03;;;;;;;12.29;78.00;99133.97;7347619;19;21480;-62
2023/03/16 02:35:39;;;;;;;0.10;0.10;;;;;;;12.29;77.66;99134.81;7355276;19;20007;-62
2023/03/16 02:38:05;;;;;;;0.10;0.10;;;;;;;12.25;77.65;99129.81;7353342;19;20017;-62
2023/03/16 02:40:33;;;;;;;0.03;0.03;;;;;;;12.27;77.49;99120.13;7353455;19;20014;-62
2023/03/16 02:43:04;;;;;;;;;;;;;;;12.37;76.86;99137.03;7354406;19;20014;-62
2023/03/16 02:45:42;;;;;;;0.08;0.08;;;;;;;12.35;77.34;99124.00;7351041;19;19923;-62
2023/03/16 02:48:16;;;;;;;0.10;0.10;;;;;;;12.36;77.40;99124.84;7353061;19;20007;-62
2023/03/16 02:50:47;;;;;;;0.10;0.10;;;;;;;12.35;77.42;99115.28;7356224;19;20398;-62
2023/03/16 02:53:14;;;;;;;0.10;0.10;;;;;;;12.34;78.01;99111.00;7352110;19;20010;-62
2023/03/16 02:55:40;;;;;;;0.10;0.10;;;;;;;12.35;77.56;99110.06;7353733;19;20471;-61
2023/03/16 02:58:05;;;;;;;0.03;0.03;;;;;;;12.37;77.75;99116.06;7341463;19;20019;-62
2023/03/16 03:00:31;;;;;;;0.10;0.10;;;;;;;12.38;77.54;99112.53;7349386;19;20397;-61
2023/03/16 03:02:57;;;;;;;0.10;0.10;;;;;;;12.40;77.76;99116.72;7353543;19;20014;-62
2023/03/16 03:05:23;;;;;;;0.10;0.10;;;;;;;12.35;77.41;99107.44;7353852;19;20025;-62
2023/03/16 03:07:48;;;;;;;0.10;0.10;;;;;;;12.44;77.46;99118.25;7351843;19;20017;-62
2023/03/16 03:10:14;;;;;;;0.08;0.08;;;;;;;12.45;77.58;99111.25;7354709;19;20018;-62
2023/03/16 03:12:39;;;;;;;0.10;0.10;;;;;;;12.49;77.32;99110.16;7352892;19;20018;-62
2023/03/16 03:15:06;;;;;;;0.03;0.03;;;;;;;12.51;77.51;99097.81;7349003;19;20403;-62
2023/03/16 03:17:31;;;;;;;0.10;0.10;;;;;;;12.52;77.30;99096.91;7353053;19;20010;-61
2023/03/16 03:19:58;;;;;;;0.08;0.08;;;;;;;12.53;77.32;99106.44;7355472;19;21414;-62
2023/03/16 03:22:25;;;;;;;0.10;0.10;;;;;;;12.54;77.75;99097.63;7343723;19;20010;-62
2023/03/16 03:24:50;;;;;;;0.10;0.10;;;;;;;12.55;77.49;99088.00;7353809;19;20070;-62
2023/03/16 03:27:16;;;;;;;0.00;0.00;;;;;;;12.57;77.32;99087.00;7350213;19;20006;-62
2023/03/16 03:29:41;;;;;;;0.10;0.10;;;;;;;12.57;77.15;99087.00;7351431;19;20015;-62
2023/03/16 03:32:07;;;;;;;0.10;0.10;;;;;;;12.59;77.15;99079.91;7346231;19;20645;-62
2023/03/16 03:34:32;;;;;;;0.00;0.00;;;;;;;12.56;77.49;99068.75;7351746;19;20817;-62
2023/03/16 03:36:58;;;;;;;0.00;0.00;;;;;;;12.48;77.44;99048.25;7352433;19;20055;-62
2023/03/16 03:39:24;;;;;;;0.10;0.10;;;;;;;12.59;77.75;99068.56;7351112;19;20011;-62
2023/03/16 03:41:53;;;;;;;0.00;0.00;;;;;;;12.63;77.21;99070.94;7353891;19;20023;-61
2023/03/16 03:44:20;;;;;;;0.10;0.10;;;;;;;12.66;77.39;99062.88;7350795;19;20022;-61
2023/03/16 03:46:46;;;;;;;0.10;0.10;;;;;;;12.66;77.52;99055.03;7350341;19;20011;-61
2023/03/16 03:49:11;;;;;;;0.10;0.10;;;;;;;12.67;77.05;99048.88;7353717;19;20704;-62
2023/03/16 03:51:37;;;;;;;0.08;0.08;;;;;;;12.68;77.04;99074.13;7348254;19;22287;-62
2023/03/16 03:54:02;;;;;;;0.10;0.10;;;;;;;12.71;76.88;99062.63;7351654;19;20082;-62
2023/03/16 03:56:28;;;;;;;0.10;0.10;;;;;;;12.64;77.07;99051.66;7349770;19;20010;-62
2023/03/16 03:58:53;;;;;;;0.00;0.00;;;;;;;12.68;77.42;99055.81;7355804;19;20006;-62
2023/03/16 04:01:19;;;;;;;0.00;0.00;;;;;;;12.70;77.01;99058.31;7354842;19;20022;-62
2023/03/16 04:03:45;;;;;;;0.10;0.10;;;;;;;12.66;77.20;99049.78;7351588;19;20363;-61
2023/03/16 04:06:10;;;;;;;0.10;0.10;;;;;;;12.71;77.12;99047.75;7338459;19;20011;-62
2023/03/16 04:08:36;;;;;;;0.10;0.10;;;;;;;12.72;77.46;99049.47;7360765;19;20486;-61
2023/03/16 04:11:01;;;;;;;0.10;0.10;;;;;;;12.73;77.05;99035.44;7360505;19;20011;-62
2023/03/16 04:13:27;;;;;;;0.00;0.00;;;;;;;12.72;77.31;99033.75;7359143;19;20014;-62
2023/03/16 04:15:57;;;;;;;0.10;0.10;;;;;;;12.77;77.19;99032.63;7356591;19;20014;-62
2023/03/16 04:18:22;;;;;;;0.00;0.00;;;;;;;12.63;77.18;99004.63;7359690;19;20046;-62
2023/03/16 04:20:48;;;;;;;0.10;0.10;;;;;;;12.73;76.86;99035.44;7339901;19;20022;-62
2023/03/16 04:23:15;;;;;;;0.10;0.10;;;;;;;12.75;77.27;99031.88;7359721;19;20581;-62
2023/03/16 04:25:41;;;;;;;0.10;0.10;;;;;;;12.78;77.35;99026.47;7357238;19;20015;-61
2023/03/16 04:28:06;;;;;;;0.10;0.10;;;;;;;12.79;76.79;99031.59;7359168;19;20023;-62
2023/03/16 04:30:32;;;;;;;0.10;0.10;;;;;;;12.78;77.14;99021.22;7359355;19;20539;-62
2023/03/16 04:32:57;;;;;;;0.10;0.10;;;;;;;12.78;76.82;99021.22;7359293;19;20478;-62
2023/03/16 04:35:22;;;;;;;0.00;0.00;;;;;;;12.80;77.18;99024.59;7357146;19;20020;-61
2023/03/16 04:37:48;;;;;;;0.03;0.03;;;;;;;12.79;77.31;99017.66;7358422;19;20483;-62
2023/03/16 04:40:18;;;;;;;0.10;0.10;;;;;;;12.80;77.35;99028.03;7362680;19;20041;-61
2023/03/16 04:42:44;;;;;;;0.10;0.10;;;;;;;12.81;76.93;99021.03;7360682;19;20039;-61
2023/03/16 04:45:11;;;;;;;0.10;0.10;;;;;;;12.82;77.28;99027.94;7362010;19;20514;-60
2023/03/16 04:47:36;;;;;;;0.10;0.10;;;;;;;12.72;77.20;99004.06;7357729;19;20003;-61
2023/03/16 04:50:03;;;;;;;0.00;0.00;;;;;;;12.71;76.84;99000.59;7357560;19;21027;-61
2023/03/16 04:52:29;;;;;;;0.10;0.10;;;;;;;12.73;77.16;99004.00;7359699;19;20035;-61
2023/03/16 04:54:55;;;;;;;0.05;0.05;;;;;;;12.83;76.88;99008.72;7354246;19;20017;-61
2023/03/16 04:57:20;;;;;;;0.10;0.10;;;;;;;12.85;77.06;99012.91;7339230;19;20011;-61
2023/03/16 04:59:45;;;;;;;0.10;0.10;;;;;;;12.85;76.91;99001.59;7355198;19;20039;-61
2023/03/16 05:02:11;;;;;;;0.10;0.10;;;;;;;12.82;76.69;99025.31;7358911;19;20006;-61
2023/03/16 05:04:36;;;;;;;0.10;0.10;;;;;;;12.86;76.79;99008.50;7358162;19;20035;-61
2023/03/16 05:07:02;;;;;;;0.10;0.10;;;;;;;12.86;77.07;99003.25;7359944;19;20463;-61
2023/03/16 05:09:28;;;;;;;0.05;0.05;;;;;;;12.85;77.12;99004.22;7357204;19;20020;-61
2023/03/16 05:11:53;;;;;;;0.10;0.10;;;;;;;12.87;77.08;99015.41;7360706;19;20010;-61
2023/03/16 05:14:19;;;;;;;0.10;0.10;;;;;;;12.87;77.22;99007.56;7358589;19;20025;-60
2023/03/16 05:16:44;;;;;;;0.00;0.00;;;;;;;12.89;77.09;99003.09;7362749;19;20011;-61
2023/03/16 05:19:10;;;;;;;0.10;0.10;;;;;;;12.89;76.81;99003.09;7356501;19;20016;-61
2023/03/16 05:21:37;;;;;;;0.10;0.10;;;;;;;12.89;76.87;99003.09;7356018;19;20039;-61
2023/03/16 05:24:05;;;;;;;0.00;0.00;;;;;;;12.91;76.76;99011.69;7359256;19;20007;-61
2023/03/16 05:26:31;;;;;;;0.00;0.00;;;;;;;12.89;77.11;99009.19;7358358;19;20007;-61
2023/03/16 05:28:57;;;;;;;0.00;0.00;;;;;;;12.89;77.00;99005.72;7358317;19;20014;-62
2023/03/16 05:31:25;;;;;;;0.10;0.10;;;;;;;12.90;76.69;99010.84;7357852;19;20496;-62
2023/03/16 05:33:51;;;;;;;0.08;0.08;;;;;;;12.91;76.86;98998.59;7358237;19;20070;-61
2023/03/16 05:36:16;;;;;;;0.10;0.10;;;;;;;12.89;76.76;99000.47;7359665;19;20028;-62
2023/03/16 05:38:42;;;;;;;0.00;0.00;;;;;;;12.88;77.10;98985.69;7361548;19;20483;-61
2023/03/16 05:41:07;;;;;;;0.10;0.10;;;;;;;12.89;76.96;98980.34;7354617;19;20535;-61
2023/03/16 05:43:33;;;;;;;0.10;0.10;;;;;;;12.90;76.66;98978.56;7358944;19;20019;-61
2023/03/16 05:45:58;;;;;;;0.10;0.10;;;;;;;12.89;76.94;98977.75;7359869;19;20006;-61
2023/03/16 05:48:26;;;;;;;0.10;0.10;;;;;;;12.89;76.76;98974.28;7360183;19;20018;-61
2023/03/16 05:50:52;;;;;;;0.10;0.10;;;;;;;12.90;76.94;98975.97;7356586;19;20007;-61
2023/03/16 05:53:18;;;;;;;0.10;0.10;;;;;;;12.78;76.81;98945.28;7358688;19;20018;-61
2023/03/16 05:55:44;;;;;;;0.00;0.00;;;;;;;12.85;76.81;98959.66;7357255;19;20523;-61
2023/03/16 05:58:10;;;;;;;0.08;0.08;;;;;;;12.84;76.52;98971.09;7358346;19;20742;-62
2023/03/16 06:00:38;;;;;;;0.10;0.10;;;;;;;12.84;76.59;98965.84;7357807;19;20006;-61
2023/03/16 06:03:03;;;;;;;0.00;0.00;;;;;;;12.84;76.72;98971.09;7358630;19;20002;-61
2023/03/16 06:05:30;;;;;;;0.05;0.05;;;;;;;12.82;76.80;98970.31;7357432;19;20020;-62
2023/03/16 06:07:56;;;;;;;0.10;0.10;;;;;;;12.81;76.76;98973.88;7360634;19;20014;-61
2023/03/16 06:10:23;;;;;;;0.00;0.00;;;;;;;12.77;76.93;98965.34;7358478;19;20010;-61
2023/03/16 06:12:48;;;;;;;0.10;0.10;;;;;;;12.78;77.11;98967.06;7358387;19;20475;-60
2023/03/16 06:15:14;;;;;;;0.05;0.05;;;;;;;12.76;76.77;98970.69;7360106;19;20013;-61
2023/03/16 06:17:40;;;;;;;0.10;0.10;;;;;;;12.63;77.19;98950.47;7359363;19;20467;-60
2023/03/16 06:20:11;;;;;;;0.10;0.10;;;;;;;12.73;77.20;98962.09;7355053;19;20560;-61
2023/03/16 06:22:38;;;;;;;0.08;0.08;;;;;;;12.70;76.81;98946.56;7358919;19;20014;-61
2023/03/16 06:25:04;;;;;;;0.10;0.10;;;;;;;12.66;76.90;98929.31;7354656;19;20455;-60
2023/03/16 06:27:30;;;;;;;0.10;0.10;;;;;;;12.64;77.48;98931.22;7359481;19;20627;-61
2023/03/16 06:29:55;;;;;;;0.08;0.08;;;;;;;12.61;76.88;98920.91;7358626;19;20017;-61
2023/03/16 06:32:21;;;;;;;0.10;0.10;;;;;;;12.60;77.42;98919.22;7358023;19;20006;-62
2023/03/16 06:34:46;;;;;;;0.10;0.10;;;;;;;12.58;77.31;98915.88;7358027;19;20047;-61
2023/03/16 06:37:12;;;;;;;0.08;0.08;;;;;;;12.25;77.55;98865.50;7354858;19;20014;-61
2023/03/16 06:39:38;;;;;;;0.10;0.10;;;;;;;12.44;77.59;98898.34;7356772;19;20014;-61
2023/03/16 06:42:04;;;;;;;0.10;0.10;;;;;;;12.55;77.19;98899.47;7358244;19;20017;-62
2023/03/16 06:44:30;;;;;;;0.10;0.10;;;;;;;12.57;76.81;98905.47;7357931;19;20094;-61
2023/03/16 06:46:56;;;;;;;0.00;0.00;;;;;;;12.55;77.33;98925.66;7355480;19;20018;-62
2023/03/16 06:49:21;;;;;;;0.00;0.00;;;;;;;12.53;77.48;98928.38;7355879;19;20646;-62
2023/03/16 06:51:46;;;;;;;0.00;0.00;;;;;;;12.51;77.21;98940.72;7356322;19;20038;-62
2023/03/16 06:54:12;;;;;;;0.10;0.10;;;;;;;12.53;77.47;98943.25;7348060;19;20006;-61
2023/03/16 06:56:37;;;;;;;0.10;0.10;;;;;;;12.53;77.40;98932.78;7353801;19;20040;-62
2023/03/16 06:59:03;;;;;;;0.00;0.00;;;;;;;12.56;77.06;98932.59;7344428;19;20014;-61
2023/03/16 07:01:28;;;;;;;0.10;0.10;;;;;;;12.55;77.82;98936.97;7352670;19;20656;-61
2023/03/16 07:03:54;;;;;;;0.10;0.10;;;;;;;12.56;77.46;98930.81;7355590;19;20027;-62
2023/03/16 07:06:19;;;;;;;0.10;0.10;;;;;;;12.58;77.44;98931.56;7353425;19;20664;-62
2023/03/16 07:08:45;;;;;;;0.00;0.00;;;;;;;12.61;77.69;98965.41;7353578;19;20408;-62
2023/03/16 07:11:10;;;;;;;0.08;0.08;;;;;;;12.62;77.67;98937.44;7346987;19;20018;-62
2023/03/16 07:13:36;;;;;;;0.00;0.00;;;;;;;12.65;77.08;98930.25;7355575;19;20884;-62
2023/03/16 07:16:01;;;;;;;0.10;0.10;;;;;;;12.36;77.57;98878.78;7353092;19;20038;-61
2023/03/16 07:18:29;;;;;;;0.10;0.10;;;;;;;12.64;77.52;98925.97;7355307;19;20018;-62
2023/03/16 07:20:54;;;;;;;0.00;0.00;;;;;;;12.65;77.48;98916.34;7352278;19;20010;-62
2023/03/16 07:23:19;;;;;;;0.10;0.10;;;;;;;12.69;77.16;98912.59;7352500;19;22235;-62
2023/03/16 07:25:45;;;;;;;0.00;0.00;;;;;;;12.71;77.22;98921.19;7354610;19;20030;-61
2023/03/16 07:28:11;;;;;;;0.08;0.08;;;;;;;12.72;77.22;98934.22;7350852;19;20014;-62
2023/03/16 07:30:36;;;;;;;0.00;0.00;;;;;;;12.72;77.24;98925.50;7350370;19;20681;-62
2023/03/16 07:33:02;;;;;;;0.10;0.10;;;;;;;12.70;77.43;98925.59;7354177;19;20003;-62
2023/03/16 07:35:28;;;;;;;0.10;0.10;;;;;;;12.73;77.06;98925.44;7361310;19;20023;-61
2023/03/16 07:37:54;;;;;;;0.10;0.10;;;;;;;12.75;77.46;98935.81;7359505;19;20036;-62
2023/03/16 07:40:19;;;;;;;0.10;0.10;;;;;;;12.75;77.09;98927.09;7355434;19;20015;-62
2023/03/16 07:42:45;;;;;;;0.10;0.10;;;;;;;12.69;77.14;98929.16;7354271;19;22278;-62
2023/03/16 07:45:11;;;;;;;0.00;0.00;;;;;;;12.80;77.23;98925.06;7356733;19;20022;-62
2023/03/16 07:47:36;;;;;;;0.10;0.10;;;;;;;12.81;77.16;98937.22;7356641;19;20031;-62
2023/03/16 07:50:02;;;;;;;0.00;0.00;;;;;;;12.82;77.51;98933.66;7360632;19;20014;-62
2023/03/16 07:52:27;;;;;;;0.00;0.00;;;;;;;12.84;77.30;98931.78;7357896;19;20016;-62
2023/03/16 07:54:54;;;;;;;0.10;0.10;;;;;;;12.86;77.31;98935.16;7358673;19;20567;-62
2023/03/16 07:57:19;;;;;;;0.00;0.00;;;;;;;12.88;76.93;98928.06;7358526;19;20023;-62
2023/03/16 07:59:44;;;;;;;0.10;0.10;;;;;;;12.89;76.84;98934.97;7358133;19;20030;-62
2023/03/16 08:02:20;;;;;;;0.10;0.10;;;;;;;12.62;77.20;98885.94;7349881;19;20011;-62
2023/03/16 08:04:46;;;;;;;0.10;0.10;;;;;;;12.93;77.04;98939.09;7356383;19;20010;-62
2023/03/16 08:07:13;;;;;;;0.10;0.10;;;;;;;12.94;77.04;98944.25;7359595;19;20010;-62
2023/03/16 08:09:40;;;;;;;0.10;0.10;;;;;;;12.94;76.83;98943.41;7360485;19;20013;-62
2023/03/16 08:12:07;;;;;;;0.10;0.10;;;;;;;12.96;76.91;98944.16;7332628;19;20559;-59
2023/03/16 08:14:33;;;;;;;0.00;0.00;;;;;;;12.95;77.11;98934.59;7335173;19;20873;-62
2023/03/16 08:17:00;;;;;;;0.00;0.00;;;;;;;12.97;77.31;98937.97;7347991;19;20896;-61
2023/03/16 08:19:26;;;;;;;0.10;0.10;;;;;;;12.89;76.93;98916.66;7349514;19;20077;-58
2023/03/16 08:21:52;;;;;;;0.05;0.05;;;;;;;13.01;77.17;98934.22;7348178;19;20014;-58
2023/03/16 08:24:17;;;;;;;0.10;0.10;;;;;;;12.99;77.14;98949.22;7349193;19;20006;-58
2023/03/16 08:26:43;;;;;;;0.00;0.00;;;;;;;13.02;77.24;98941.16;7342631;19;20047;-58
2023/03/16 08:29:08;;;;;;;0.10;0.10;;;;;;;13.10;77.06;98956.41;7348955;19;20074;-58
2023/03/16 08:31:34;;;;;;;0.10;0.10;;;;;;;13.13;77.33;98949.22;7349212;19;20551;-58
2023/03/16 08:33:59;;;;;;;0.08;0.08;;;;;;;13.16;77.21;98954.25;7346258;19;20010;-58
2023/03/16 08:36:26;;;;;;;0.10;0.10;;;;;;;13.22;77.57;98961.78;7343327;19;20006;-58
2023/03/16 08:38:53;;;;;;;0.10;0.10;;;;;;;13.22;77.20;98959.16;7349960;19;20878;-58
2023/03/16 08:41:19;;;;;;;0.10;0.10;;;;;;;13.38;77.53;98973.94;7349951;19;20429;-58
2023/03/16 08:43:45;;;;;;;0.10;0.10;;;;;;;13.43;77.37;98974.50;7349221;19;22368;-58
2023/03/16 08:46:12;;;;;;;0.08;0.08;;;;;;;13.52;77.28;98976.53;7351056;19;20873;-58
2023/03/16 08:48:39;;;;;;;0.00;0.00;;;;;;;13.58;77.27;98981.41;7347602;19;20026;-59
2023/03/16 08:51:05;;;;;;;0.10;0.10;;;;;;;13.53;77.20;98946.75;7349916;19;20018;-58
2023/03/16 08:53:30;;;;;;;0.00;0.00;;;;;;;13.70;76.83;98969.31;7343041;19;21493;-58
2023/03/16 08:56:08;;;;;;;0.10;0.10;;;;;;;13.80;76.91;98966.97;7338878;19;20749;-58
2023/03/16 08:58:34;;;;;;;0.10;0.10;;;;;;;13.83;76.88;98969.38;7338417;19;20006;-58
2023/03/16 09:01:01;;;;;;;0.10;0.10;;;;;;;13.84;76.66;98965.81;7341919;19;20028;-58
2023/03/16 09:03:26;;;;;;;0.10;0.10;;;;;;;13.90;77.11;98962.81;7340938;19;20011;-58
2023/03/16 09:05:53;;;;;;;0.00;0.00;;;;;;;13.96;76.69;98965.03;7342141;19;20836;-58
2023/03/16 09:08:18;;;;;;;0.10;0.10;;;;;;;14.00;76.65;98956.03;7337873;19;20117;-58
2023/03/16 09:10:45;;;;;;;0.00;0.00;;;;;;;14.06;76.69;98939.88;7341581;19;20014;-59
2023/03/16 09:13:11;;;;;;;0.00;0.00;;;;;;;14.16;76.46;98964.59;7341212;19;20014;-58
2023/03/16 09:15:37;;;;;;;0.10;0.10;;;;;;;14.18;76.12;98944.31;7342307;19;20105;-58
2023/03/16 09:18:04;;;;;;;0.10;0.10;;;;;;;14.25;76.47;98955.28;7339742;19;20022;-58
2023/03/16 09:20:30;;;;;;;0.10;0.10;;;;;;;14.35;77.04;98950.25;7340449;19;20038;-59
2023/03/16 09:22:57;;;;;;;0.03;0.03;;;;;;;14.45;76.83;98948.72;7341458;19;20353;-59
2023/03/16 09:25:24;;;;;;;0.00;0.00;;;;;;;14.54;76.75;98950.72;7339591;19;20031;-58
2023/03/16 09:27:50;;;;;;;0.10;0.10;;;;;;;14.71;76.67;98945.19;7341780;19;20136;-58
2023/03/16 09:30:15;;;;;;;0.00;0.00;;;;;;;14.87;76.36;98952.03;7338951;19;20006;-58
2023/03/16 09:32:41;;;;;;;0.10;0.10;;;;;;;14.96;75.85;98957.50;7342807;19;20003;-59
2023/03/16 09:35:07;;;;;;;0.10;0.10;;;;;;;14.98;75.61;98939.00;7336646;19;20015;-59
2023/03/16 09:37:32;;;;;;;0.10;0.10;;;;;;;15.10;74.89;98964.44;7341181;19;20010;-59
2023/03/16 09:39:58;;;;;;;0.10;0.10;;;;;;;15.10;74.75;98972.31;7337637;19;20026;-58
2023/03/16 09:42:38;;;;;;;0.03;0.03;;;;;;;15.13;74.58;98956.34;7341199;19;20109;-58
2023/03/16 09:45:30;;;;;;;0.10;0.10;;;;;;;15.11;74.43;98960.03;7340422;19;20821;-59
2023/03/16 09:47:59;;;;;;;0.00;0.00;;;;;;;15.01;74.71;98955.41;7238775;19;2004509;-58
2023/03/16 09:50:34;;;;;;;0.10;0.10;;;;;;;14.66;74.84;98897.38;7338586;19;20053;-59
2023/03/16 09:53:22;;;;;;;0.00;0.00;;;;;;;15.01;74.38;98957.19;7338973;19;20031;-59
2023/03/16 09:55:52;;;;;;;0.10;0.10;;;;;;;14.87;74.66;98931.00;7339388;19;20535;-58
2023/03/16 09:58:20;;;;;;;0.00;0.00;;;;;;;15.03;75.24;98952.66;7339314;19;21870;-59
2023/03/16 10:00:54;;;;;;;0.00;0.00;;;;;;;15.12;75.24;98946.78;7339341;19;20851;-58
2023/03/16 10:03:25;;;;;;;0.10;0.10;;;;;;;15.22;75.61;98954.88;7339589;19;20875;-59
2023/03/16 10:05:59;;;;;;;0.00;0.00;;;;;;;15.41;76.45;98951.78;7339236;19;20017;-58
2023/03/16 10:08:31;;;;;;;0.10;0.10;;;;;;;15.57;75.89;98936.59;7340361;19;20010;-58
2023/03/16 10:11:15;;;;;;;0.10;0.10;;;;;;;15.80;75.47;98948.97;7338207;19;20016;-59
2023/03/16 10:13:55;;;;;;;0.10;0.10;;;;;;;16.08;75.10;98947.81;7339754;19;20045;-59
2023/03/16 10:16:29;;;;;;;0.05;0.05;;;;;;;16.20;74.56;98940.78;7339560;19;20020;-59
2023/03/16 10:19:04;;;;;;;0.10;0.10;;;;;;;16.28;73.75;98948.97;7340532;19;20011;-59
2023/03/16 10:21:37;;;;;;;0.10;0.10;;;;;;;16.18;73.17;98932.19;7338781;19;20894;-58
2023/03/16 10:24:05;;;;;;;0.10;0.10;;;;;;;16.27;72.95;98942.03;7340571;19;20018;-58
2023/03/16 10:26:47;;;;;;;0.10;0.10;;;;;;;16.29;73.12;98941.91;7339667;19;20616;-58
2023/03/16 10:29:13;;;;;;;0.10;0.10;;;;;;;16.22;72.65;98948.56;7339186;19;20035;-58
2023/03/16 10:31:40;;;;;;;0.10;0.10;;;;;;;16.23;72.65;98959.00;7337931;19;22513;-58
2023/03/16 10:34:07;;;;;;;0.10;0.10;;;;;;;16.20;72.93;98953.13;7340061;19;20025;-58
2023/03/16 10:36:35;;;;;;;0.10;0.10;;;;;;;16.22;73.07;98959.97;7337256;19;20026;-58
2023/03/16 10:39:07;;;;;;;0.10;0.10;;;;;;;16.24;72.39;98962.50;7340710;19;20689;-59
2023/03/16 10:41:37;;;;;;;0.10;0.10;;;;;;;16.22;73.34;98959.97;7335667;19;20014;-58
2023/03/16 10:44:11;;;;;;;0.00;0.00;;;;;;;16.27;73.51;98943.81;7340954;19;20516;-58
2023/03/16 10:46:47;;;;;;;0.10;0.10;;;;;;;16.30;72.69;98946.22;7340453;19;20017;-59
2023/03/16 10:49:24;;;;;;;0.10;0.10;;;;;;;16.38;73.02;98953.56;7339624;19;20009;-58
2023/03/16 10:51:50;;;;;;;0.10;0.10;;;;;;;16.32;73.05;98937.28;7335919;19;20747;-59
2023/03/16 10:54:23;;;;;;;0.10;0.10;;;;;;;16.51;73.84;98946.41;7338185;19;21800;-59
2023/03/16 10:56:49;;;;;;;0.10;0.10;;;;;;;16.60;74.05;98948.34;7337516;19;20014;-59
2023/03/16 10:59:26;;;;;;;0.10;0.10;;;;;;;16.83;75.04;98936.97;7337769;19;22216;-58
2023/03/16 11:01:52;;;;;;;0.10;0.10;;;;;;;17.00;74.00;98946.19;7331055;19;20891;-59
2023/03/16 11:04:18;;;;;;;0.10;0.10;;;;;;;17.15;73.15;98936.25;7337002;19;20898;-58
2023/03/16 11:06:55;;;;;;;0.08;0.08;;;;;;;17.56;74.88;98942.72;7335728;19;20011;-58
2023/03/16 11:09:31;;;;;;;0.03;0.03;;;;;;;17.91;74.22;98952.28;7334673;19;20033;-58
2023/03/16 11:11:57;;;;;;;0.10;0.10;;;;;;;18.18;72.96;98944.75;7344184;19;20789;-58
2023/03/16 11:14:27;;;;;;;0.10;0.10;;;;;;;18.47;73.20;98938.88;7343213;19;20002;-59
2023/03/16 11:17:09;;;;;;;0.00;0.00;;;;;;;18.80;72.61;98951.91;7344487;19;20006;-58
2023/03/16 11:19:44;;;;;;;0.00;0.00;;;;;;;18.91;70.65;98951.84;7343951;19;20003;-58
2023/03/16 11:22:15;;;;;;;0.08;0.08;;;;;;;18.88;69.25;98943.34;7344519;19;20051;-59
2023/03/16 11:24:49;;;;;;;0.10;0.10;;;;;;;18.92;69.56;98947.41;7342557;19;20016;-58
2023/03/16 11:27:22;;;;;;;0.00;0.00;;;;;;;18.83;67.78;98945.53;7343807;19;20021;-58
2023/03/16 11:30:10;;;;;;;0.10;0.10;;;;;;;18.69;68.07;98954.63;7343940;19;20046;-59
2023/03/16 11:32:39;;;;;;;0.10;0.10;;;;;;;18.57;67.57;98955.63;7344301;19;20040;-58
2023/03/16 11:35:19;;;;;;;0.10;0.10;;;;;;;18.50;68.48;98949.16;7341205;19;20870;-59
2023/03/16 11:37:57;;;;;;;0.08;0.08;;;;;;;18.46;68.50;98959.16;7344033;19;20359;-59